Time;durP1;ratioP1;P1;durP2;ratioP2;P2;SDS_P1;SDS_P2;PMS_P1;PMS_P2;Temp;Humidity;BMP_temperature;BMP_pressure;BME280_temperature;BME280_humidity;BME280_pressure;Samples;Min_cycle;Max_cycle;Signal;HPM_P1;HPM_P2
2022/08/08 00:01:22;;;;;;;8.87;6.00;;;16.30;99.90;;;;;;5012838;28;20438;-68
2022/08/08 00:03:58;;;;;;;6.60;5.83;;;16.20;99.90;;;;;;5011623;28;20438;-68
2022/08/08 00:06:37;;;;;;;6.07;5.43;;;16.10;99.90;;;;;;5012025;28;20533;-67
2022/08/08 00:09:12;;;;;;;5.50;5.00;;;16.10;99.90;;;;;;5012163;28;20427;-67
2022/08/08 00:11:43;;;;;;;5.90;5.30;;;16.00;99.90;;;;;;5012122;28;20488;-68
2022/08/08 00:14:26;;;;;;;13.70;5.10;;;16.00;99.90;;;;;;5012575;28;20482;-68
2022/08/08 00:17:03;;;;;;;6.80;5.70;;;16.00;99.90;;;;;;5012050;28;20473;-67
2022/08/08 00:19:35;;;;;;;6.57;5.63;;;16.00;99.90;;;;;;5012529;28;20497;-67
2022/08/08 00:22:09;;;;;;;7.50;5.70;;;16.00;99.90;;;;;;5012209;28;20439;-67
2022/08/08 00:24:42;;;;;;;6.33;5.73;;;16.00;99.90;;;;;;5012252;28;20485;-67
2022/08/08 00:27:13;;;;;;;6.43;4.83;;;16.00;99.90;;;;;;5012225;28;20763;-67
2022/08/08 00:29:48;;;;;;;5.60;5.10;;;15.90;99.90;;;;;;5012288;28;20438;-69
2022/08/08 00:32:21;;;;;;;6.10;5.20;;;15.90;99.90;;;;;;5011715;28;20807;-68
2022/08/08 00:35:19;;;;;;;6.30;5.27;;;15.90;99.90;;;;;;5012271;28;20863;-68
2022/08/08 00:38:01;;;;;;;6.23;5.20;;;15.90;99.90;;;;;;5009846;28;20820;-67
2022/08/08 00:40:51;;;;;;;5.90;5.30;;;15.90;99.90;;;;;;5011574;28;20435;-67
2022/08/08 00:44:14;;;;;;;5.47;4.40;;;15.90;99.90;;;;;;5011816;28;20844;-68
2022/08/08 00:47:19;;;;;;;7.20;4.90;;;15.80;99.90;;;;;;5011248;28;20474;-67
2022/08/08 00:50:22;;;;;;;5.70;4.87;;;15.80;99.90;;;;;;5011892;28;20437;-68
2022/08/08 00:52:57;;;;;;;5.00;4.50;;;15.80;99.90;;;;;;4966840;28;20446;-67
2022/08/08 00:56:13;;;;;;;7.13;6.00;;;15.70;99.90;;;;;;4992199;28;20491;-67
2022/08/08 00:59:13;;;;;;;6.17;5.23;;;15.60;99.90;;;;;;4992187;28;20471;-69
2022/08/08 01:01:55;;;;;;;5.43;4.93;;;15.40;99.90;;;;;;4998731;28;20443;-67
2022/08/08 01:05:03;;;;;;;5.70;5.00;;;15.30;99.90;;;;;;5011582;28;20439;-67
2022/08/08 01:08:07;;;;;;;6.20;5.33;;;15.10;99.90;;;;;;5009342;28;20435;-67
2022/08/08 01:11:16;;;;;;;7.43;6.47;;;15.00;99.90;;;;;;5000655;28;20959;-68
2022/08/08 01:14:26;;;;;;;7.10;5.73;;;15.00;99.90;;;;;;4992058;28;20498;-68
2022/08/08 01:17:30;;;;;;;6.40;5.80;;;14.90;99.90;;;;;;4992401;28;20449;-67
2022/08/08 01:20:35;;;;;;;6.53;4.80;;;15.00;99.90;;;;;;4992071;28;20439;-67
2022/08/08 01:23:35;;;;;;;6.13;5.50;;;15.10;99.90;;;;;;5011178;28;21512;-67
2022/08/08 01:26:28;;;;;;;6.33;5.73;;;15.00;99.90;;;;;;5010868;28;20453;-67
2022/08/08 01:29:29;;;;;;;5.13;4.50;;;15.00;99.90;;;;;;5011685;28;20802;-67
2022/08/08 01:32:46;;;;;;;5.97;5.00;;;15.10;99.90;;;;;;4999648;28;20449;-67
2022/08/08 01:35:40;;;;;;;5.50;4.83;;;15.10;99.90;;;;;;5009712;28;21038;-67
2022/08/08 01:38:34;;;;;;;6.40;5.70;;;15.00;99.90;;;;;;5011131;28;20447;-67
2022/08/08 01:41:09;;;;;;;4.70;4.00;;;15.00;99.90;;;;;;4998444;28;20438;-67
2022/08/08 01:43:47;;;;;;;5.20;4.53;;;15.00;99.90;;;;;;5010340;28;20438;-67
2022/08/08 01:46:41;;;;;;;4.63;4.23;;;15.10;99.90;;;;;;5010354;28;20787;-69
2022/08/08 01:49:19;;;;;;;5.40;4.67;;;15.00;99.90;;;;;;5010622;28;20979;-67
2022/08/08 01:52:02;;;;;;;5.30;4.40;;;15.00;99.90;;;;;;5012020;28;20457;-67
2022/08/08 01:54:45;;;;;;;5.37;4.87;;;15.00;99.90;;;;;;5014308;28;20492;-67
2022/08/08 01:57:24;;;;;;;5.83;4.80;;;15.00;99.90;;;;;;5015223;28;20438;-68
2022/08/08 02:00:07;;;;;;;4.47;4.07;;;14.90;99.90;;;;;;5014416;28;20788;-67
2022/08/08 02:02:51;;;;;;;9.83;5.30;;;14.80;99.90;;;;;;5014943;28;20449;-67
2022/08/08 02:05:32;;;;;;;7.47;5.37;;;14.80;99.90;;;;;;4995327;28;20451;-67
2022/08/08 02:08:08;;;;;;;5.00;4.50;;;14.70;99.90;;;;;;5007027;28;20877;-67
2022/08/08 02:10:53;;;;;;;6.00;5.40;;;14.70;99.90;;;;;;5015214;28;20442;-68
2022/08/08 02:13:36;;;;;;;7.53;5.10;;;14.70;99.90;;;;;;5014039;28;20470;-67
2022/08/08 02:16:13;;;;;;;5.47;4.97;;;14.70;99.90;;;;;;5014803;28;20485;-67
2022/08/08 02:18:46;;;;;;;6.00;5.40;;;14.70;99.90;;;;;;5014474;28;20443;-68
2022/08/08 02:24:17;;;;;;;7.90;5.00;;;14.80;99.90;;;;;;4974733;28;20499;-67
2022/08/08 02:26:51;;;;;;;5.60;5.00;;;14.80;99.90;;;;;;4994926;28;20509;-72
2022/08/08 02:29:32;;;;;;;6.73;6.00;;;14.80;99.90;;;;;;4995054;28;20440;-67
2022/08/08 02:32:38;;;;;;;6.23;5.17;;;14.60;99.90;;;;;;5009572;28;20979;-67
2022/08/08 02:35:35;;;;;;;8.07;4.97;;;14.50;99.90;;;;;;4998413;28;20952;-67
2022/08/08 02:38:38;;;;;;;8.17;7.20;;;14.50;99.90;;;;;;4994262;28;20457;-67
2022/08/08 02:41:44;;;;;;;8.47;6.63;;;14.40;99.90;;;;;;5000023;28;20904;-70
2022/08/08 02:44:46;;;;;;;10.50;8.57;;;14.40;99.90;;;;;;5007282;28;20453;-67
2022/08/08 02:48:03;;;;;;;12.00;9.00;;;14.30;99.90;;;;;;5012922;28;20486;-68
2022/08/08 02:51:07;;;;;;;6.97;6.27;;;14.30;99.90;;;;;;4993242;28;20542;-67
2022/08/08 02:54:00;;;;;;;6.63;5.63;;;14.30;99.90;;;;;;4998670;28;20470;-67
2022/08/08 02:57:28;;;;;;;7.30;6.33;;;14.20;99.90;;;;;;5013032;28;20458;-67
2022/08/08 03:00:29;;;;;;;6.47;4.90;;;14.20;99.90;;;;;;5012550;28;20442;-67
2022/08/08 03:03:28;;;;;;;8.87;6.40;;;14.10;99.90;;;;;;5012167;28;20901;-67
2022/08/08 03:06:29;;;;;;;5.23;4.70;;;14.10;99.90;;;;;;4993107;28;20620;-67
2022/08/08 03:09:47;;;;;;;7.83;6.20;;;14.20;99.90;;;;;;4999807;28;20468;-67
2022/08/08 03:12:38;;;;;;;6.97;6.30;;;14.20;99.60;;;;;;5012799;28;20944;-67
2022/08/08 03:15:35;;;;;;;8.10;6.10;;;14.10;99.90;;;;;;5008291;28;20485;-67
2022/08/08 03:18:08;;;;;;;5.53;5.03;;;14.10;99.90;;;;;;5012118;28;21592;-67
2022/08/08 03:20:46;;;;;;;5.50;5.00;;;14.10;99.90;;;;;;5012950;28;20929;-67
2022/08/08 03:23:16;;;;;;;9.27;7.10;;;14.10;99.90;;;;;;5012318;28;20530;-68
2022/08/08 03:25:49;;;;;;;6.53;5.83;;;14.00;99.90;;;;;;5012691;28;20450;-69
2022/08/08 03:28:22;;;;;;;9.23;5.73;;;14.00;99.90;;;;;;5011913;28;20434;-67
2022/08/08 03:30:50;;;;;;;7.50;5.20;;;13.90;99.90;;;;;;5012192;28;20450;-68
2022/08/08 03:33:18;;;;;;;6.37;5.77;;;13.90;99.90;;;;;;5012071;28;20438;-68
2022/08/08 03:35:49;;;;;;;5.77;4.80;;;14.00;99.90;;;;;;5012455;28;20885;-67
2022/08/08 03:38:21;;;;;;;6.10;5.60;;;13.90;99.90;;;;;;5011644;28;20435;-67
2022/08/08 03:40:51;;;;;;;8.67;5.40;;;13.90;99.90;;;;;;5012245;28;20434;-68
2022/08/08 03:43:21;;;;;;;7.67;5.80;;;13.90;99.90;;;;;;5011939;28;20442;-67
2022/08/08 03:45:50;;;;;;;9.13;5.80;;;13.80;99.90;;;;;;4963582;28;1402546;-67
2022/08/08 03:48:17;;;;;;;7.60;5.60;;;13.80;99.90;;;;;;5012007;28;20646;-67
2022/08/08 03:50:48;;;;;;;6.63;5.20;;;13.90;99.90;;;;;;5012476;28;20509;-68
2022/08/08 03:53:18;;;;;;;5.83;5.30;;;13.90;99.90;;;;;;5012880;28;20450;-68
2022/08/08 03:55:51;;;;;;;5.77;5.17;;;13.90;99.90;;;;;;5012413;28;20479;-67
2022/08/08 03:58:23;;;;;;;7.43;5.67;;;13.90;99.90;;;;;;5012837;28;20438;-67
2022/08/08 04:00:52;;;;;;;7.10;6.03;;;13.90;99.90;;;;;;5012550;28;21008;-68
2022/08/08 04:03:20;;;;;;;5.83;3.90;;;13.90;99.90;;;;;;5013296;28;20435;-67
2022/08/08 04:05:48;;;;;;;7.23;4.83;;;13.90;99.90;;;;;;5012749;28;20484;-67
2022/08/08 04:08:21;;;;;;;7.27;6.47;;;14.00;99.90;;;;;;5013234;28;20438;-69
2022/08/08 04:10:50;;;;;;;6.17;5.47;;;13.90;99.90;;;;;;5012900;28;20446;-67
2022/08/08 04:13:19;;;;;;;9.20;5.27;;;13.90;99.90;;;;;;5013217;28;20442;-67
2022/08/08 04:15:47;;;;;;;6.60;5.87;;;14.00;99.90;;;;;;5011686;28;20497;-68
2022/08/08 04:18:14;;;;;;;6.27;5.67;;;14.00;99.90;;;;;;4993688;28;20872;-67
2022/08/08 04:20:42;;;;;;;7.80;7.10;;;13.90;99.90;;;;;;4993426;28;20451;-69
2022/08/08 04:23:11;;;;;;;8.33;6.90;;;13.90;99.90;;;;;;5012133;28;20797;-67
2022/08/08 04:25:45;;;;;;;7.43;6.50;;;14.00;99.90;;;;;;5012656;28;20451;-67
2022/08/08 04:28:13;;;;;;;6.57;5.70;;;14.00;99.90;;;;;;5012661;28;20434;-67
2022/08/08 04:30:40;;;;;;;6.30;5.70;;;13.90;99.90;;;;;;5012458;28;20446;-71
2022/08/08 04:33:10;;;;;;;8.30;6.20;;;13.90;99.90;;;;;;5012892;28;20441;-67
2022/08/08 04:35:38;;;;;;;6.60;5.00;;;13.90;99.90;;;;;;5012228;28;20470;-67
2022/08/08 04:38:05;;;;;;;5.13;4.63;;;13.90;99.90;;;;;;5012703;28;20439;-67
2022/08/08 04:40:33;;;;;;;10.33;7.10;;;13.90;99.90;;;;;;5012139;28;20435;-67
2022/08/08 04:43:03;;;;;;;6.20;5.60;;;13.90;99.90;;;;;;5012762;28;21072;-67
2022/08/08 04:45:31;;;;;;;8.13;6.33;;;13.90;99.90;;;;;;5012293;28;20930;-68
2022/08/08 04:48:00;;;;;;;7.67;6.53;;;13.80;99.90;;;;;;5011851;28;20439;-67
2022/08/08 04:50:28;;;;;;;8.27;6.10;;;13.80;99.90;;;;;;5012172;28;20442;-67
2022/08/08 04:52:58;;;;;;;8.93;7.17;;;13.90;99.90;;;;;;5012058;28;20497;-67
2022/08/08 04:55:25;;;;;;;6.50;5.90;;;14.00;99.90;;;;;;5012050;28;20849;-67
2022/08/08 04:57:52;;;;;;;8.37;6.20;;;14.10;99.90;;;;;;5012271;28;20922;-67
2022/08/08 05:00:23;;;;;;;6.47;5.50;;;14.10;99.90;;;;;;5011880;28;20775;-67
2022/08/08 05:02:51;;;;;;;6.83;5.97;;;14.20;99.90;;;;;;5012208;28;20925;-67
2022/08/08 05:05:21;;;;;;;6.10;5.50;;;14.30;99.90;;;;;;5011915;28;20486;-67
2022/08/08 05:07:50;;;;;;;7.37;5.70;;;14.30;99.90;;;;;;5011768;28;20541;-67
2022/08/08 05:10:18;;;;;;;7.00;5.97;;;14.30;99.90;;;;;;5012199;28;20443;-67
2022/08/08 05:12:47;;;;;;;6.90;5.60;;;14.40;99.90;;;;;;5011873;28;20470;-67
2022/08/08 05:15:15;;;;;;;6.63;5.30;;;14.40;99.90;;;;;;5012386;28;20528;-67
2022/08/08 05:17:44;;;;;;;6.27;5.67;;;14.40;99.90;;;;;;5007165;28;20447;-68
2022/08/08 05:20:11;;;;;;;6.40;5.73;;;14.50;99.90;;;;;;5008127;28;20987;-69
2022/08/08 05:22:39;;;;;;;10.20;5.77;;;14.60;99.90;;;;;;5010878;28;20447;-67
2022/08/08 05:25:06;;;;;;;5.07;4.57;;;14.70;99.90;;;;;;5009690;28;20435;-67
2022/08/08 05:27:34;;;;;;;7.57;6.00;;;14.70;99.90;;;;;;5010353;28;20438;-68
2022/08/08 05:30:02;;;;;;;7.07;5.13;;;14.80;99.90;;;;;;5011212;28;20799;-67
2022/08/08 05:32:29;;;;;;;6.00;5.20;;;14.90;99.90;;;;;;5011389;28;20952;-67
2022/08/08 05:35:00;;;;;;;6.57;5.80;;;15.00;99.90;;;;;;5008579;28;20465;-68
2022/08/08 05:37:29;;;;;;;8.80;5.97;;;15.10;99.90;;;;;;5010558;28;20438;-67
2022/08/08 05:39:56;;;;;;;6.43;5.83;;;15.20;99.90;;;;;;5010705;28;20501;-67
2022/08/08 05:42:31;;;;;;;7.50;6.53;;;15.30;99.90;;;;;;5011292;28;20443;-67
2022/08/08 05:45:01;;;;;;;6.30;5.67;;;15.50;99.90;;;;;;5006982;28;20509;-67
2022/08/08 05:47:28;;;;;;;8.03;5.93;;;15.60;99.90;;;;;;5010033;28;20554;-67
2022/08/08 05:49:59;;;;;;;5.63;5.13;;;15.60;99.90;;;;;;5010082;28;20800;-69
2022/08/08 05:52:28;;;;;;;5.60;4.97;;;15.80;99.90;;;;;;5007849;28;20442;-67
2022/08/08 05:54:55;;;;;;;8.13;5.50;;;15.80;99.90;;;;;;5010590;28;20443;-67
2022/08/08 05:57:27;;;;;;;5.23;4.73;;;15.90;99.90;;;;;;5011319;28;20478;-67
2022/08/08 05:59:58;;;;;;;6.00;5.40;;;15.90;99.90;;;;;;5010717;28;20438;-67
2022/08/08 06:05:14;;;;;;;7.03;5.10;;;16.10;99.90;;;;;;5010909;28;20500;-68
2022/08/08 06:07:42;;;;;;;5.87;5.30;;;16.20;99.90;;;;;;5011191;28;20441;-68
2022/08/08 06:10:10;;;;;;;6.90;3.87;;;16.20;99.90;;;;;;5010071;28;20960;-67
2022/08/08 06:12:38;;;;;;;7.20;4.93;;;16.30;99.90;;;;;;5011150;28;20577;-67
2022/08/08 06:15:08;;;;;;;6.27;5.07;;;16.40;99.90;;;;;;5010609;28;20526;-67
2022/08/08 06:17:37;;;;;;;4.77;4.20;;;16.40;99.90;;;;;;5010456;28;20458;-69
2022/08/08 06:20:07;;;;;;;5.90;5.23;;;16.40;99.60;;;;;;5002543;28;20525;-68
2022/08/08 06:22:36;;;;;;;6.23;4.70;;;16.50;99.30;;;;;;5014699;28;20513;-67
2022/08/08 06:25:07;;;;;;;5.10;4.10;;;16.60;98.90;;;;;;5013490;28;21022;-68
2022/08/08 06:27:41;;;;;;;5.87;4.30;;;16.70;98.00;;;;;;5015004;28;20921;-67
2022/08/08 06:30:10;;;;;;;4.03;3.63;;;16.80;97.50;;;;;;5015002;28;20976;-67
2022/08/08 06:32:42;;;;;;;5.50;4.90;;;16.90;97.60;;;;;;5015265;28;20442;-67
2022/08/08 06:35:13;;;;;;;4.90;4.20;;;17.00;97.30;;;;;;5014639;28;20507;-67
2022/08/08 06:37:47;;;;;;;7.20;4.73;;;17.00;97.20;;;;;;5018827;28;20532;-68
2022/08/08 06:40:15;;;;;;;6.80;4.90;;;17.20;97.70;;;;;;5020256;28;20543;-68
2022/08/08 06:42:49;;;;;;;5.70;4.80;;;17.30;97.40;;;;;;5016318;28;20926;-67
2022/08/08 06:45:19;;;;;;;5.37;4.40;;;17.40;98.00;;;;;;5017996;28;20539;-67
2022/08/08 06:47:46;;;;;;;5.73;4.37;;;17.50;98.00;;;;;;5014605;28;20476;-67
2022/08/08 06:50:14;;;;;;;6.33;5.30;;;17.70;97.90;;;;;;5024446;28;20473;-68
2022/08/08 06:52:43;;;;;;;6.73;4.57;;;17.80;98.10;;;;;;5019865;28;20453;-68
2022/08/08 06:55:11;;;;;;;6.63;4.73;;;17.90;97.80;;;;;;5012525;28;20452;-70
2022/08/08 06:57:38;;;;;;;6.30;4.00;;;18.10;97.90;;;;;;5021352;28;20975;-69
2022/08/08 07:00:07;;;;;;;7.97;4.97;;;18.20;97.70;;;;;;5022060;28;20449;-67
2022/08/08 07:02:35;;;;;;;4.83;3.60;;;18.40;97.70;;;;;;5007779;28;20480;-68
2022/08/08 07:05:07;;;;;;;4.37;3.70;;;18.50;97.40;;;;;;5016697;28;20446;-67
2022/08/08 07:07:54;;;;;;;5.17;3.90;;;18.70;97.50;;;;;;5020678;28;20489;-67
2022/08/08 07:10:24;;;;;;;6.30;4.83;;;18.90;97.50;;;;;;5016690;28;20448;-67
2022/08/08 07:12:54;;;;;;;4.00;3.40;;;19.00;97.30;;;;;;5018236;28;20483;-68
2022/08/08 07:15:32;;;;;;;4.20;3.80;;;19.20;97.20;;;;;;5020229;28;20500;-67
2022/08/08 07:18:04;;;;;;;4.73;4.03;;;19.40;97.60;;;;;;5018577;28;20522;-67
2022/08/08 07:20:36;;;;;;;4.70;3.97;;;19.60;97.00;;;;;;5018609;28;20463;-68
2022/08/08 07:23:15;;;;;;;5.47;4.60;;;19.70;96.60;;;;;;5015319;28;20440;-65
2022/08/08 07:25:44;;;;;;;5.43;3.90;;;19.90;96.30;;;;;;5017633;28;20440;-65
2022/08/08 07:28:14;;;;;;;4.83;3.90;;;20.10;96.00;;;;;;5018200;28;20936;-65
2022/08/08 07:30:43;;;;;;;4.70;3.90;;;20.30;96.10;;;;;;5020835;28;20457;-66
2022/08/08 07:33:11;;;;;;;3.57;3.23;;;20.40;95.60;;;;;;5016835;28;20445;-66
2022/08/08 07:35:39;;;;;;;5.13;4.03;;;20.50;95.60;;;;;;5016354;28;20525;-65
2022/08/08 07:38:10;;;;;;;7.10;3.90;;;20.70;95.40;;;;;;5018187;28;20812;-65
2022/08/08 07:40:39;;;;;;;4.23;3.83;;;20.90;94.30;;;;;;5016252;28;20864;-65
2022/08/08 07:43:06;;;;;;;5.07;3.10;;;21.00;93.40;;;;;;5015280;28;20451;-66
2022/08/08 07:45:34;;;;;;;4.80;3.57;;;21.10;92.80;;;;;;5020519;28;20469;-65
2022/08/08 07:48:03;;;;;;;4.27;3.43;;;21.30;91.70;;;;;;5015847;28;20442;-65
2022/08/08 07:50:31;;;;;;;7.70;3.07;;;21.40;90.80;;;;;;5014304;28;20530;-65
2022/08/08 07:53:04;;;;;;;4.20;3.13;;;21.50;91.10;;;;;;5017418;28;20451;-65
2022/08/08 07:55:32;;;;;;;5.00;2.60;;;21.60;90.60;;;;;;5014437;28;20461;-65
2022/08/08 07:58:13;;;;;;;3.90;3.40;;;21.70;90.30;;;;;;5014465;28;20529;-65
2022/08/08 08:00:44;;;;;;;3.60;3.10;;;21.80;90.50;;;;;;5016826;28;20447;-67
2022/08/08 08:03:12;;;;;;;9.53;4.90;;;22.00;87.70;;;;;;5015916;28;20492;-65
2022/08/08 08:05:42;;;;;;;4.73;2.90;;;22.00;88.30;;;;;;5017456;28;20443;-64
2022/08/08 08:08:16;;;;;;;4.93;2.83;;;22.20;88.40;;;;;;5017701;28;20445;-65
2022/08/08 08:10:53;;;;;;;3.20;2.80;;;22.40;86.70;;;;;;5012076;28;20479;-65
2022/08/08 08:13:27;;;;;;;3.53;2.50;;;22.50;86.40;;;;;;5016083;28;20443;-66
2022/08/08 08:16:10;;;;;;;6.67;3.00;;;22.60;85.00;;;;;;5016673;28;20969;-64
2022/08/08 08:18:43;;;;;;;3.53;2.60;;;22.60;81.90;;;;;;5015989;28;20469;-64
2022/08/08 08:21:10;;;;;;;5.80;2.90;;;22.70;82.50;;;;;;5013667;28;20562;-65
2022/08/08 08:23:38;;;;;;;4.20;2.47;;;22.90;81.30;;;;;;5015183;28;20859;-65
2022/08/08 08:26:07;;;;;;;3.60;3.10;;;23.00;80.10;;;;;;5012175;28;20501;-64
2022/08/08 08:28:34;;;;;;;2.93;2.17;;;23.10;80.50;;;;;;5018534;28;20488;-64
2022/08/08 08:31:03;;;;;;;6.10;3.00;;;23.20;80.60;;;;;;5011211;28;20434;-64
2022/08/08 08:33:31;;;;;;;7.83;2.70;;;23.40;77.30;;;;;;5010932;28;20981;-66
2022/08/08 08:35:58;;;;;;;5.80;2.60;;;23.50;77.30;;;;;;5009798;28;20528;-64
2022/08/08 08:38:25;;;;;;;4.50;2.73;;;23.60;79.00;;;;;;5016326;28;20529;-64
2022/08/08 08:40:52;;;;;;;4.77;2.50;;;23.70;78.80;;;;;;5012708;28;20501;-65
2022/08/08 08:43:21;;;;;;;3.10;2.00;;;23.80;71.90;;;;;;5015281;28;20450;-67
2022/08/08 08:45:49;;;;;;;7.40;3.00;;;23.80;73.30;;;;;;5011264;28;20529;-65
2022/08/08 08:48:19;;;;;;;3.27;2.40;;;23.90;72.00;;;;;;5005637;28;20558;-64
2022/08/08 08:50:50;;;;;;;2.87;2.07;;;23.90;70.20;;;;;;5011251;28;20438;-65
2022/08/08 08:53:17;;;;;;;4.13;2.43;;;24.00;67.60;;;;;;5007914;28;20470;-65
2022/08/08 08:55:46;;;;;;;4.33;2.23;;;24.20;67.10;;;;;;5010835;28;20859;-65
2022/08/08 08:58:25;;;;;;;3.70;2.20;;;24.30;67.00;;;;;;5012197;28;20534;-64
2022/08/08 09:00:53;;;;;;;2.97;2.57;;;24.40;67.50;;;;;;5009532;28;20920;-65
2022/08/08 09:03:23;;;;;;;3.77;2.37;;;24.50;67.90;;;;;;5011520;28;20478;-65
2022/08/08 09:05:50;;;;;;;2.77;1.80;;;24.70;66.90;;;;;;5015264;28;20438;-66
2022/08/08 09:08:21;;;;;;;3.20;2.10;;;24.80;72.20;;;;;;5007839;28;20475;-66
2022/08/08 09:10:48;;;;;;;4.13;2.43;;;25.00;76.70;;;;;;5004650;28;20486;-65
2022/08/08 09:13:16;;;;;;;4.77;2.17;;;25.20;72.40;;;;;;5010251;28;20442;-65
2022/08/08 09:15:45;;;;;;;3.30;2.30;;;25.30;72.90;;;;;;5017607;28;20446;-65
2022/08/08 09:18:16;;;;;;;3.70;2.10;;;25.40;72.00;;;;;;5016390;28;20566;-65
2022/08/08 09:20:44;;;;;;;3.17;2.23;;;25.50;70.50;;;;;;5012882;28;20444;-65
2022/08/08 09:23:13;;;;;;;4.40;3.63;;;25.60;71.20;;;;;;5016802;28;20469;-66
2022/08/08 09:25:47;;;;;;;4.13;2.87;;;25.60;70.20;;;;;;5015815;28;20446;-66
2022/08/08 09:28:15;;;;;;;3.50;2.40;;;25.60;69.50;;;;;;5016689;28;20945;-65
2022/08/08 09:30:49;;;;;;;3.00;2.00;;;25.70;70.60;;;;;;5015375;28;20481;-66
2022/08/08 09:33:17;;;;;;;2.77;2.07;;;25.80;71.50;;;;;;5011142;28;20443;-66
2022/08/08 09:35:47;;;;;;;3.50;2.37;;;26.00;76.20;;;;;;5012999;28;20448;-65
2022/08/08 09:38:22;;;;;;;4.20;1.90;;;26.10;80.00;;;;;;5014692;28;20485;-66
2022/08/08 09:40:55;;;;;;;5.90;2.20;;;26.30;80.10;;;;;;5015046;28;20451;-65
2022/08/08 09:43:29;;;;;;;5.33;1.80;;;26.40;74.00;;;;;;5014589;28;20501;-66
2022/08/08 09:46:00;;;;;;;4.93;2.30;;;26.50;74.70;;;;;;5015937;28;20474;-65
2022/08/08 09:48:31;;;;;;;3.33;2.00;;;26.70;77.00;;;;;;5014020;28;20530;-65
2022/08/08 09:50:58;;;;;;;5.67;1.90;;;27.00;75.30;;;;;;5018428;28;20523;-65
2022/08/08 09:53:41;;;;;;;2.83;2.03;;;27.30;76.00;;;;;;5013692;28;20909;-66
2022/08/08 09:56:11;;;;;;;3.73;1.90;;;27.50;71.00;;;;;;5012721;28;20536;-65
2022/08/08 09:58:40;;;;;;;4.80;1.90;;;27.70;72.20;;;;;;5014838;28;20470;-65
2022/08/08 10:01:10;;;;;;;3.57;2.10;;;27.80;69.60;;;;;;5020293;28;20496;-65
2022/08/08 10:03:40;;;;;;;5.57;2.10;;;28.00;69.90;;;;;;5009269;28;20530;-65
2022/08/08 10:06:14;;;;;;;2.50;1.93;;;28.20;72.40;;;;;;5017049;28;20454;-65
2022/08/08 10:08:46;;;;;;;3.53;2.57;;;28.40;72.60;;;;;;5012277;28;20467;-66
2022/08/08 10:11:16;;;;;;;3.17;2.03;;;28.40;67.70;;;;;;5003408;28;20771;-66
2022/08/08 10:13:53;;;;;;;5.93;2.13;;;28.40;68.10;;;;;;5010009;28;20474;-66
2022/08/08 10:16:22;;;;;;;4.70;2.07;;;28.10;66.00;;;;;;5012705;28;20523;-66
2022/08/08 10:18:50;;;;;;;4.13;2.17;;;28.10;66.40;;;;;;5015726;28;20484;-65
2022/08/08 10:21:18;;;;;;;3.90;2.03;;;28.10;67.20;;;;;;5018482;28;20528;-65
2022/08/08 10:23:47;;;;;;;3.17;2.30;;;28.00;66.90;;;;;;5019403;28;20443;-65
2022/08/08 10:26:20;;;;;;;4.30;2.10;;;28.00;66.50;;;;;;5011164;28;20438;-65
2022/08/08 10:28:56;;;;;;;3.10;2.30;;;28.00;68.70;;;;;;5019480;28;20435;-65
2022/08/08 10:34:26;;;;;;;2.53;1.70;;;27.80;63.60;;;;;;4943052;29;20454;-65
2022/08/08 10:36:55;;;;;;;3.10;2.03;;;27.80;66.10;;;;;;5001692;28;20591;-65
2022/08/08 10:39:24;;;;;;;2.33;1.70;;;27.90;65.00;;;;;;5016137;28;20505;-65
2022/08/08 10:41:57;;;;;;;2.50;1.70;;;28.00;64.40;;;;;;5014078;28;20501;-66
2022/08/08 10:44:39;;;;;;;2.73;1.50;;;28.10;67.50;;;;;;5011762;28;20435;-65
2022/08/08 10:47:11;;;;;;;4.83;1.77;;;28.20;66.30;;;;;;5012956;28;20490;-65
2022/08/08 10:49:40;;;;;;;3.63;1.57;;;28.10;63.50;;;;;;5015338;28;20989;-65
2022/08/08 10:52:08;;;;;;;2.93;1.80;;;28.00;60.60;;;;;;5015567;28;20444;-65
2022/08/08 10:54:35;;;;;;;2.63;2.00;;;27.90;59.70;;;;;;5020754;28;20476;-65
2022/08/08 10:57:04;;;;;;;2.60;1.63;;;27.80;60.20;;;;;;5018335;28;20494;-65
2022/08/08 10:59:31;;;;;;;2.83;1.70;;;27.80;61.00;;;;;;5011523;28;20821;-65
2022/08/08 11:01:59;;;;;;;4.30;1.60;;;27.80;66.20;;;;;;5016019;28;20525;-65
2022/08/08 11:04:27;;;;;;;4.83;2.10;;;27.80;61.90;;;;;;5009314;28;20513;-65
2022/08/08 11:07:00;;;;;;;2.60;1.93;;;27.90;63.10;;;;;;5016313;28;20472;-65
2022/08/08 11:09:28;;;;;;;3.57;1.77;;;27.90;62.30;;;;;;5017954;28;20450;-65
2022/08/08 11:11:57;;;;;;;4.17;1.90;;;28.00;61.10;;;;;;5012615;28;20862;-65
2022/08/08 11:14:24;;;;;;;5.57;2.53;;;28.00;59.80;;;;;;5017102;28;20914;-65
2022/08/08 11:16:51;;;;;;;2.80;1.77;;;28.10;60.00;;;;;;5016597;28;20498;-66
2022/08/08 11:19:19;;;;;;;3.20;1.47;;;28.10;60.60;;;;;;5018809;28;20533;-65
2022/08/08 11:21:50;;;;;;;3.47;1.90;;;28.10;61.70;;;;;;5017743;28;20486;-66
2022/08/08 11:24:17;;;;;;;3.70;1.70;;;28.20;59.30;;;;;;5017967;28;20978;-69
2022/08/08 11:26:45;;;;;;;3.37;1.80;;;28.30;61.60;;;;;;5017037;28;20851;-65
2022/08/08 11:29:14;;;;;;;7.63;2.17;;;28.30;62.10;;;;;;5018609;28;20439;-65
2022/08/08 11:31:47;;;;;;;3.23;2.50;;;28.30;63.60;;;;;;5017666;28;20827;-67
2022/08/08 11:34:16;;;;;;;3.10;1.70;;;28.40;62.20;;;;;;5016297;28;20442;-65
2022/08/08 11:36:44;;;;;;;6.50;2.53;;;28.40;63.60;;;;;;5017885;28;20556;-67
2022/08/08 11:39:14;;;;;;;4.07;1.80;;;28.40;62.70;;;;;;5017671;28;20526;-67
2022/08/08 11:41:43;;;;;;;10.10;2.17;;;28.50;62.10;;;;;;5011784;28;20951;-66
2022/08/08 11:44:13;;;;;;;3.00;1.73;;;28.50;60.70;;;;;;5017753;28;20930;-66
2022/08/08 11:46:40;;;;;;;4.00;1.80;;;28.50;57.80;;;;;;5013861;28;20482;-66
2022/08/08 11:49:10;;;;;;;3.20;1.57;;;28.40;57.60;;;;;;5017191;28;20455;-65
2022/08/08 11:51:38;;;;;;;5.30;2.00;;;28.40;59.50;;;;;;5016641;28;20545;-65
2022/08/08 11:54:05;;;;;;;5.27;2.20;;;28.40;60.00;;;;;;5014678;28;20470;-65
2022/08/08 11:56:37;;;;;;;3.00;1.80;;;28.50;59.90;;;;;;5016507;28;20545;-66
2022/08/08 11:59:08;;;;;;;5.37;2.00;;;28.60;61.10;;;;;;5014934;28;20486;-65
2022/08/08 12:01:35;;;;;;;4.47;1.97;;;28.60;60.10;;;;;;5015321;28;20914;-65
2022/08/08 12:04:04;;;;;;;5.30;2.20;;;28.60;60.00;;;;;;5016333;28;20449;-66
2022/08/08 12:06:31;;;;;;;2.70;1.80;;;28.50;58.80;;;;;;5010926;28;20486;-65
2022/08/08 12:09:05;;;;;;;2.97;1.80;;;28.40;59.00;;;;;;5010042;28;20473;-65
2022/08/08 12:11:41;;;;;;;3.80;2.00;;;28.30;58.80;;;;;;5014015;28;20442;-66
2022/08/08 12:14:09;;;;;;;2.97;2.00;;;28.40;59.60;;;;;;5011376;28;20455;-65
2022/08/08 12:16:48;;;;;;;3.30;2.10;;;28.30;57.90;;;;;;5018143;28;20450;-65
2022/08/08 12:19:15;;;;;;;2.97;2.17;;;28.20;57.50;;;;;;5012491;28;20521;-65
2022/08/08 12:21:42;;;;;;;3.30;2.57;;;28.20;58.90;;;;;;5013724;28;20581;-66
2022/08/08 12:24:11;;;;;;;3.50;1.60;;;28.30;61.30;;;;;;5014579;28;20497;-65
2022/08/08 12:26:42;;;;;;;6.77;3.03;;;28.30;58.40;;;;;;5008475;28;20447;-65
2022/08/08 12:29:22;;;;;;;5.57;1.90;;;28.40;58.40;;;;;;5017413;28;20439;-65
2022/08/08 12:32:07;;;;;;;5.07;2.10;;;28.40;59.90;;;;;;5013642;28;20446;-65
2022/08/08 12:34:40;;;;;;;2.70;1.83;;;28.50;58.30;;;;;;5013507;28;20465;-67
2022/08/08 12:37:10;;;;;;;2.63;1.70;;;28.50;59.10;;;;;;5006946;28;20509;-70
2022/08/08 12:39:40;;;;;;;4.27;1.60;;;28.40;57.90;;;;;;5016106;28;20447;-67
2022/08/08 12:42:08;;;;;;;2.43;1.70;;;28.50;57.90;;;;;;5018057;28;20438;-65
2022/08/08 12:44:35;;;;;;;3.00;1.90;;;28.40;58.70;;;;;;5013493;28;21012;-65
2022/08/08 12:47:11;;;;;;;5.13;2.43;;;28.40;57.50;;;;;;5017903;28;20510;-65
2022/08/08 12:49:39;;;;;;;5.70;2.60;;;28.30;58.40;;;;;;5013917;28;20541;-65
2022/08/08 12:52:07;;;;;;;3.87;2.20;;;28.20;59.80;;;;;;5011505;28;20477;-65
2022/08/08 12:54:36;;;;;;;3.70;2.07;;;28.20;59.30;;;;;;5018444;28;20446;-65
2022/08/08 12:57:20;;;;;;;3.10;1.87;;;28.30;61.10;;;;;;5017960;28;20927;-65
2022/08/08 12:59:51;;;;;;;2.73;2.00;;;28.30;61.30;;;;;;5016858;28;20470;-65
2022/08/08 13:02:23;;;;;;;2.83;2.10;;;28.40;60.90;;;;;;5016044;28;20526;-65
2022/08/08 13:04:51;;;;;;;4.00;1.97;;;28.40;57.50;;;;;;5014844;28;20439;-65
2022/08/08 13:07:18;;;;;;;3.00;1.90;;;28.30;58.10;;;;;;5015032;28;20537;-66
2022/08/08 13:09:48;;;;;;;4.23;2.23;;;28.30;58.30;;;;;;5012380;28;20449;-65
2022/08/08 13:12:18;;;;;;;2.93;2.20;;;28.30;59.90;;;;;;5014816;28;20466;-65
2022/08/08 13:14:47;;;;;;;3.40;2.30;;;28.30;59.20;;;;;;5009354;28;20835;-65
2022/08/08 13:17:14;;;;;;;3.57;1.90;;;28.30;59.30;;;;;;5015381;28;20515;-66
2022/08/08 13:19:50;;;;;;;4.03;1.93;;;28.30;58.80;;;;;;5014916;28;20540;-65
2022/08/08 13:22:18;;;;;;;4.80;2.03;;;28.20;57.90;;;;;;5015439;28;20473;-65
2022/08/08 13:24:45;;;;;;;4.27;1.93;;;28.20;60.50;;;;;;5013149;28;20486;-65
2022/08/08 13:27:17;;;;;;;3.50;2.30;;;28.20;62.60;;;;;;5015089;28;20441;-65
2022/08/08 13:29:50;;;;;;;2.70;1.90;;;28.30;60.00;;;;;;5016414;28;20813;-66
2022/08/08 13:32:17;;;;;;;4.37;2.47;;;28.30;59.10;;;;;;5013270;28;20469;-65